Time;durP1;ratioP1;P1;durP2;ratioP2;P2;SDS_P1;SDS_P2;PMS_P1;PMS_P2;Temp;Humidity;BMP_temperature;BMP_pressure;BME280_temperature;BME280_humidity;BME280_pressure;Samples;Min_cycle;Max_cycle;Signal;HPM_P1;HPM_P2
2022/11/25 04:00:37;;;;;;;;;;;17.10;51.00;;;;;;5886639;23;45658;-62
2022/11/25 04:03:02;;;;;;;;;;;17.20;51.10;;;;;;4873860;28;45533;-60
2022/11/25 04:05:28;;;;;;;;;;;17.10;51.00;;;;;;4915311;28;45399;-61
2022/11/25 04:07:53;;;;;;;;;;;17.10;51.00;;;;;;4914396;28;45270;-61
2022/11/25 04:10:18;;;;;;;;;;;17.10;51.00;;;;;;4913760;28;45523;-61
2022/11/25 04:12:47;;;;;;;;;;;17.10;51.00;;;;;;4894993;29;45332;-60
2022/11/25 04:15:13;;;;;;;;;;;17.10;51.00;;;;;;4891577;28;45966;-60
2022/11/25 04:17:38;;;;;;;;;;;17.10;51.00;;;;;;4893365;29;44982;-60
2022/11/25 04:20:04;;;;;;;;;;;17.10;51.00;;;;;;4895644;29;44727;-59
2022/11/25 04:22:30;;;;;;;;;;;17.10;51.00;;;;;;4890483;29;45510;-62
2022/11/25 04:24:55;;;;;;;;;;;17.10;51.00;;;;;;4895916;29;45987;-60
2022/11/25 04:27:21;;;;;;;;;;;17.10;51.00;;;;;;4895865;29;45187;-61
2022/11/25 04:29:46;;;;;;;;;;;17.00;51.00;;;;;;4898171;29;45509;-60
2022/11/25 04:32:12;;;;;;;;;;;17.00;51.00;;;;;;4892658;29;46461;-61
2022/11/25 04:34:37;;;;;;;;;;;17.00;51.00;;;;;;4892151;28;45927;-60
2022/11/25 04:37:02;;;;;;;;;;;17.10;51.00;;;;;;4893854;29;45199;-60
2022/11/25 04:39:28;;;;;;;;;;;17.00;51.00;;;;;;4895866;29;45518;-63
2022/11/25 04:42:30;;;;;;;;;;;17.00;51.10;;;;;;4894861;28;45100;-61
2022/11/25 04:44:39;;;;;;;;;;;17.00;51.10;;;;;;4897077;28;46022;-60
2022/11/25 04:47:07;;;;;;;;;;;17.00;51.00;;;;;;4901440;29;45235;-61
2022/11/25 04:49:32;;;;;;;;;;;17.00;51.10;;;;;;4900149;28;45276;-60
2022/11/25 04:51:58;;;;;;;;;;;16.90;51.00;;;;;;4894519;28;45402;-62
2022/11/25 04:54:23;;;;;;;;;;;17.00;51.10;;;;;;4900416;29;46141;-61
2022/11/25 04:56:49;;;;;;;;;;;16.90;51.10;;;;;;4899453;29;46074;-60
2022/11/25 05:01:59;;;;;;;;;;;16.90;51.10;;;;;;4895979;29;45551;-59
2022/11/25 05:04:24;;;;;;;;;;;16.90;51.10;;;;;;4901162;29;45906;-60
2022/11/25 05:06:50;;;;;;;;;;;16.90;51.00;;;;;;4898037;29;45757;-61
2022/11/25 05:09:16;;;;;;;;;;;16.90;51.00;;;;;;4879141;29;44851;-60
2022/11/25 05:11:41;;;;;;;;;;;16.90;51.00;;;;;;4892922;28;45552;-60
2022/11/25 05:14:07;;;;;;;;;;;16.90;51.00;;;;;;4896240;29;46483;-61
2022/11/25 05:16:32;;;;;;;;;;;16.90;51.00;;;;;;4893529;29;45329;-61
2022/11/25 05:18:58;;;;;;;;;;;16.90;51.10;;;;;;4896430;29;45246;-60
2022/11/25 05:21:24;;;;;;;;;;;16.80;51.00;;;;;;4893853;28;45729;-61
2022/11/25 05:23:49;;;;;;;;;;;16.80;51.10;;;;;;4895370;29;46114;-60
2022/11/25 05:26:14;;;;;;;;;;;16.80;51.10;;;;;;4892304;29;45360;-61
2022/11/25 05:28:40;;;;;;;;;;;16.80;51.10;;;;;;4891831;28;45220;-60
2022/11/25 05:31:05;;;;;;;;;;;16.80;51.10;;;;;;4895947;28;45397;-60
2022/11/25 05:33:31;;;;;;;;;;;16.80;51.10;;;;;;4897674;29;46022;-60
2022/11/25 05:35:57;;;;;;;;;;;16.80;51.10;;;;;;4879329;29;45505;-57
2022/11/25 05:38:22;;;;;;;;;;;16.80;51.10;;;;;;4892150;29;45481;-60
2022/11/25 05:40:48;;;;;;;;;;;16.80;51.10;;;;;;4898769;29;45064;-60
2022/11/25 05:43:13;;;;;;;;;;;16.80;51.10;;;;;;4897163;29;46266;-60
2022/11/25 05:45:39;;;;;;;;;;;16.80;51.20;;;;;;4897325;28;45126;-60
2022/11/25 05:48:04;;;;;;;;;;;16.70;51.10;;;;;;4892654;29;45821;-61
2022/11/25 05:50:30;;;;;;;;;;;16.70;51.10;;;;;;4896512;29;45046;-60
2022/11/25 05:52:55;;;;;;;;;;;16.70;51.20;;;;;;4893926;29;45609;-60
2022/11/25 05:55:21;;;;;;;;;;;16.70;51.10;;;;;;4896843;28;45060;-59
2022/11/25 05:57:46;;;;;;;;;;;16.70;51.10;;;;;;4896863;29;44913;-58
2022/11/25 06:00:12;;;;;;;;;;;16.70;51.10;;;;;;4891677;28;44925;-63
2022/11/25 06:02:37;;;;;;;;;;;16.70;51.20;;;;;;4890695;29;46242;-62
2022/11/25 06:05:03;;;;;;;;;;;16.70;51.20;;;;;;4897755;29;45257;-61
2022/11/25 06:07:28;;;;;;;;;;;16.70;51.70;;;;;;4879008;29;45283;-62
2022/11/25 06:09:54;;;;;;;;;;;16.70;51.20;;;;;;4893753;29;46172;-60
2022/11/25 06:12:20;;;;;;;;;;;16.70;51.20;;;;;;4896190;29;46152;-60
2022/11/25 06:14:46;;;;;;;;;;;16.70;51.20;;;;;;4895628;29;45598;-58
2022/11/25 06:17:11;;;;;;;;;;;16.70;51.20;;;;;;4891482;29;45479;-61
2022/11/25 06:19:37;;;;;;;;;;;16.60;51.20;;;;;;4896529;29;46458;-60
2022/11/25 06:22:02;;;;;;;;;;;16.60;51.20;;;;;;4898085;29;45500;-65
2022/11/25 06:24:29;;;;;;;;;;;16.60;51.20;;;;;;4897860;29;45049;-61
2022/11/25 06:26:54;;;;;;;;;;;16.60;51.20;;;;;;4896082;29;44954;-59
2022/11/25 06:29:20;;;;;;;;;;;16.60;51.20;;;;;;4894130;29;45176;-59
2022/11/25 06:31:45;;;;;;;;;;;16.60;51.30;;;;;;4896852;28;46072;-60
2022/11/25 06:34:11;;;;;;;;;;;16.60;51.30;;;;;;4885201;29;45468;-63
2022/11/25 06:36:36;;;;;;;;;;;16.60;51.20;;;;;;4894767;29;45537;-63
2022/11/25 06:39:02;;;;;;;;;;;16.50;51.20;;;;;;4880353;29;45121;-63
2022/11/25 06:41:27;;;;;;;;;;;16.50;51.20;;;;;;4898888;29;46185;-61
2022/11/25 06:43:53;;;;;;;;;;;16.50;51.30;;;;;;4897431;29;45206;-61
2022/11/25 06:46:18;;;;;;;;;;;16.50;51.20;;;;;;4897558;29;45409;-61
2022/11/25 06:48:44;;;;;;;;;;;16.50;51.30;;;;;;4897532;29;44881;-60
2022/11/25 06:51:09;;;;;;;;;;;16.50;51.30;;;;;;4893441;29;45791;-62
2022/11/25 06:53:35;;;;;;;;;;;16.50;51.20;;;;;;4884835;29;45001;-63
2022/11/25 06:56:02;;;;;;;;;;;16.50;51.20;;;;;;4898069;29;45313;-61
2022/11/25 06:58:29;;;;;;;;;;;16.50;51.30;;;;;;4894893;29;45564;-60
2022/11/25 07:01:02;;;;;;;;;;;16.50;51.90;;;;;;4890616;28;46357;-60
2022/11/25 07:03:28;;;;;;;;;;;16.50;51.30;;;;;;4898251;29;45422;-62
2022/11/25 07:05:54;;;;;;;;;;;16.50;51.30;;;;;;4897168;29;45226;-61
2022/11/25 07:08:23;;;;;;;;;;;16.50;51.30;;;;;;4891712;29;46317;-58
2022/11/25 07:10:48;;;;;;;;;;;16.50;51.20;;;;;;4891002;29;45922;-59
2022/11/25 07:13:14;;;;;;;;;;;16.50;51.20;;;;;;4896380;29;45167;-61
2022/11/25 07:15:39;;;;;;;;;;;16.60;51.10;;;;;;4898907;29;45576;-62
2022/11/25 07:18:05;;;;;;;;;;;16.70;51.00;;;;;;4899002;29;45216;-60
2022/11/25 07:20:31;;;;;;;;;;;16.80;50.80;;;;;;4892584;28;45994;-61
2022/11/25 07:22:57;;;;;;;;;;;17.00;50.60;;;;;;4892691;29;45590;-59
2022/11/25 07:25:22;;;;;;;;;;;17.10;50.30;;;;;;4899716;29;45022;-60
2022/11/25 07:27:48;;;;;;;;;;;17.30;50.00;;;;;;4897292;29;45463;-59
2022/11/25 07:30:14;;;;;;;;;;;17.50;49.90;;;;;;4897677;28;45217;-61
2022/11/25 07:32:39;;;;;;;0.80;0.55;;;17.60;49.60;;;;;;4880160;29;45172;-61
2022/11/25 07:35:05;;;;;;;1.13;0.90;;;17.80;49.30;;;;;;4897716;29;45507;-61
2022/11/25 07:37:31;;;;;;;0.88;0.80;;;17.90;49.10;;;;;;4897457;29;45472;-61
2022/11/25 07:39:56;;;;;;;1.27;0.95;;;18.10;49.10;;;;;;4896679;29;45988;-62
2022/11/25 07:42:22;;;;;;;0.98;0.88;;;18.10;48.90;;;;;;4888876;29;45431;-60
2022/11/25 07:44:48;;;;;;;0.85;0.85;;;18.30;48.90;;;;;;4898421;29;45022;-61
2022/11/25 07:47:13;;;;;;;1.20;0.90;;;18.30;48.80;;;;;;4896960;29;45184;-65
2022/11/25 07:49:39;;;;;;;1.33;1.00;;;18.30;48.80;;;;;;4878574;29;45636;-62
2022/11/25 07:52:05;;;;;;;0.80;0.80;;;18.30;48.90;;;;;;4896534;29;44740;-62
2022/11/25 07:54:32;;;;;;;0.70;0.60;;;18.30;48.90;;;;;;4897234;29;45569;-63
2022/11/25 07:56:57;;;;;;;2.78;0.77;;;18.50;48.90;;;;;;4896979;29;44951;-63
2022/11/25 07:59:23;;;;;;;1.55;0.88;;;18.60;48.80;;;;;;4894764;29;45846;-63
2022/11/25 08:01:49;;;;;;;1.65;0.73;;;18.70;48.60;;;;;;4895195;29;45299;-63
2022/11/25 08:04:15;;;;;;;1.23;0.88;;;18.90;49.00;;;;;;4897373;29;45110;-61
2022/11/25 08:06:42;;;;;;;1.10;0.75;;;19.00;48.30;;;;;;4897623;29;44753;-61
2022/11/25 08:09:08;;;;;;;1.30;0.80;;;19.20;48.10;;;;;;4888764;29;46226;-63
2022/11/25 08:11:34;;;;;;;1.63;1.00;;;19.30;47.90;;;;;;4893677;29;45558;-63
2022/11/25 08:14:00;;;;;;;1.33;0.95;;;19.40;47.90;;;;;;4893914;28;45479;-66
2022/11/25 08:16:26;;;;;;;1.45;0.90;;;19.50;47.70;;;;;;4895945;28;45038;-62
2022/11/25 08:18:53;;;;;;;1.00;0.75;;;19.60;47.60;;;;;;4877519;29;46016;-64
2022/11/25 08:21:18;;;;;;;1.38;1.00;;;19.70;47.50;;;;;;4892945;29;45360;-62
2022/11/25 08:23:47;;;;;;;0.95;0.80;;;19.70;47.40;;;;;;4895733;29;44929;-62
2022/11/25 08:26:15;;;;;;;3.08;0.90;;;19.90;47.40;;;;;;4895902;29;45159;-63
2022/11/25 08:28:43;;;;;;;2.92;0.82;;;19.90;47.20;;;;;;4896359;29;45447;-63
2022/11/25 08:31:14;;;;;;;1.52;0.98;;;19.90;47.20;;;;;;4874839;29;44963;-60
2022/11/25 08:33:39;;;;;;;1.17;0.90;;;19.80;47.20;;;;;;4894125;29;45207;-63
2022/11/25 08:36:05;;;;;;;1.83;0.90;;;19.90;47.40;;;;;;4896543;29;46137;-65
2022/11/25 08:38:31;;;;;;;0.80;0.73;;;20.00;47.30;;;;;;4893078;29;46042;-64
2022/11/25 08:40:57;;;;;;;0.80;0.63;;;20.10;47.30;;;;;;4891895;29;44975;-60
2022/11/25 08:43:22;;;;;;;1.25;0.90;;;20.20;47.10;;;;;;4894349;29;44979;-64
2022/11/25 08:45:48;;;;;;;0.90;0.77;;;20.30;47.00;;;;;;4895304;29;45460;-63
2022/11/25 08:48:15;;;;;;;0.90;0.75;;;20.50;47.00;;;;;;4891791;29;46193;-63
2022/11/25 08:50:43;;;;;;;1.40;0.80;;;20.60;46.80;;;;;;4893745;29;45370;-65
2022/11/25 08:53:09;;;;;;;1.10;0.85;;;20.70;46.60;;;;;;4879477;29;45331;-64
2022/11/25 08:55:37;;;;;;;0.88;0.63;;;20.80;46.40;;;;;;4894598;29;45216;-60
2022/11/25 08:58:02;;;;;;;1.40;0.90;;;20.90;46.30;;;;;;4892660;29;45927;-61
2022/11/25 09:00:28;;;;;;;1.00;0.60;;;21.00;46.10;;;;;;4895684;29;45387;-58
2022/11/25 09:02:53;;;;;;;1.30;0.80;;;21.10;46.00;;;;;;4897230;29;45139;-58
2022/11/25 09:05:19;;;;;;;1.70;0.80;;;21.20;46.00;;;;;;4895920;29;45390;-59
2022/11/25 09:07:44;;;;;;;0.60;0.60;;;21.20;45.90;;;;;;4894874;29;47127;-62
2022/11/25 09:10:13;;;;;;;2.42;0.90;;;21.30;45.90;;;;;;4893862;29;45245;-61
2022/11/25 09:12:39;;;;;;;0.90;0.68;;;21.30;45.70;;;;;;4880447;29;45320;-61
2022/11/25 09:15:05;;;;;;;0.68;0.60;;;21.20;46.50;;;;;;4897655;29;45560;-62
2022/11/25 09:17:33;;;;;;;1.83;0.70;;;21.20;46.00;;;;;;4896443;29;46066;-60
2022/11/25 09:19:58;;;;;;;0.95;0.82;;;21.30;46.00;;;;;;4895588;29;45555;-62
2022/11/25 09:22:24;;;;;;;1.48;0.65;;;21.30;45.90;;;;;;4896244;28;45008;-65
2022/11/25 09:24:49;;;;;;;1.10;0.75;;;21.40;45.80;;;;;;4897334;29;45059;-62
2022/11/25 09:27:15;;;;;;;0.88;0.60;;;21.60;45.70;;;;;;4891969;29;45277;-61
2022/11/25 09:29:41;;;;;;;1.23;0.98;;;21.70;45.50;;;;;;4891775;29;45225;-63
2022/11/25 09:32:06;;;;;;;1.02;0.73;;;21.80;45.30;;;;;;4885138;29;44661;-62
2022/11/25 09:34:32;;;;;;;0.85;0.85;;;21.90;45.20;;;;;;4901166;29;45146;-62
2022/11/25 09:36:57;;;;;;;0.85;0.63;;;22.00;45.20;;;;;;4920578;23;45954;-62
2022/11/25 09:39:28;;;;;;;0.80;0.80;;;22.00;45.10;;;;;;4884039;28;45361;-63
2022/11/25 09:48:16;;;;;;;0.63;0.60;;;22.30;45.00;;;;;;4894708;29;46271;-63
2022/11/25 09:51:10;;;;;;;0.68;0.55;;;22.40;44.80;;;;;;4876686;29;45237;-64
2022/11/25 09:53:45;;;;;;;0.70;0.65;;;22.40;44.50;;;;;;4898430;29;45563;-65
2022/11/25 09:56:33;;;;;;;0.68;0.55;;;22.50;44.80;;;;;;4897573;29;45377;-63
2022/11/25 09:59:38;;;;;;;1.15;0.80;;;22.60;44.40;;;;;;4895288;29;46232;-63
2022/11/25 10:02:16;;;;;;;0.52;0.52;;;22.70;44.20;;;;;;4827228;29;45588;-61
2022/11/25 10:04:48;;;;;;;0.47;0.47;;;22.70;44.50;;;;;;4882259;29;45764;-62
2022/11/25 10:07:17;;;;;;;0.80;0.80;;;22.80;44.50;;;;;;4880955;29;45279;-62
2022/11/25 10:09:43;;;;;;;0.50;0.50;;;22.90;44.40;;;;;;4886062;29;45298;-62
2022/11/25 10:12:27;;;;;;;0.50;0.50;;;22.90;44.40;;;;;;4879013;29;44929;-61
2022/11/25 10:14:55;;;;;;;0.50;0.50;;;23.00;44.10;;;;;;4867385;29;45326;-64
2022/11/25 10:17:40;;;;;;;0.85;0.60;;;23.00;44.20;;;;;;4897486;29;45424;-64
2022/11/25 10:20:14;;;;;;;0.75;0.70;;;23.10;44.00;;;;;;4897137;29;44983;-62
2022/11/25 10:22:41;;;;;;;0.52;0.52;;;23.20;44.00;;;;;;4899297;29;45525;-64
2022/11/25 10:25:15;;;;;;;0.80;0.70;;;23.20;44.10;;;;;;4882721;29;45479;-62
2022/11/25 10:27:51;;;;;;;0.70;0.50;;;23.30;43.90;;;;;;4895025;29;45207;-63
2022/11/25 10:30:31;;;;;;;0.50;0.50;;;23.30;43.90;;;;;;4880450;29;46884;-62
2022/11/25 10:33:19;;;;;;;0.50;0.50;;;23.30;43.50;;;;;;4883819;29;45021;-61
2022/11/25 10:35:57;;;;;;;0.57;0.50;;;23.30;43.40;;;;;;4896922;29;45353;-62
2022/11/25 10:38:27;;;;;;;0.40;0.32;;;23.20;43.90;;;;;;4880545;29;45135;-62
2022/11/25 10:40:52;;;;;;;1.23;0.77;;;23.20;44.00;;;;;;4894455;28;45482;-62
2022/11/25 10:43:18;;;;;;;0.63;0.63;;;23.30;44.20;;;;;;4882494;29;45279;-62
2022/11/25 10:46:01;;;;;;;1.02;0.52;;;23.30;44.10;;;;;;4899025;29;45226;-63
2022/11/25 10:48:35;;;;;;;0.55;0.50;;;23.40;43.90;;;;;;4873994;29;44954;-63
2022/11/25 10:51:23;;;;;;;1.00;0.80;;;23.40;43.80;;;;;;4875718;29;46172;-65
2022/11/25 10:54:14;;;;;;;0.60;0.60;;;23.50;43.80;;;;;;4868585;29;45040;-63
2022/11/25 10:56:57;;;;;;;0.63;0.60;;;23.60;43.30;;;;;;4893309;29;45324;-63
2022/11/25 10:59:29;;;;;;;1.05;0.60;;;23.70;43.50;;;;;;4898528;29;45189;-64
2022/11/25 11:02:28;;;;;;;0.90;0.60;;;23.70;43.60;;;;;;4894929;29;45568;-64
2022/11/25 11:04:55;;;;;;;1.52;0.77;;;23.70;43.20;;;;;;4898446;28;45443;-63
2022/11/25 11:07:21;;;;;;;0.60;0.60;;;23.80;43.50;;;;;;4897433;29;45039;-63
2022/11/25 11:09:47;;;;;;;0.63;0.60;;;23.80;43.50;;;;;;4896386;29;45844;-63
2022/11/25 11:12:26;;;;;;;0.50;0.50;;;23.80;43.40;;;;;;4896379;28;47397;-63
2022/11/25 11:14:52;;;;;;;0.75;0.60;;;23.90;43.40;;;;;;4886502;28;45328;-65
2022/11/25 11:17:28;;;;;;;0.80;0.63;;;23.90;43.60;;;;;;4894360;28;45607;-62
2022/11/25 11:20:02;;;;;;;0.60;0.57;;;23.90;43.30;;;;;;4876175;29;45336;-63
2022/11/25 11:22:28;;;;;;;0.73;0.50;;;23.90;43.30;;;;;;4876952;29;46619;-62
2022/11/25 11:25:08;;;;;;;0.60;0.40;;;23.90;43.40;;;;;;4894157;29;44959;-62
2022/11/25 11:27:37;;;;;;;0.85;0.50;;;23.90;43.00;;;;;;4894709;28;45639;-63
2022/11/25 11:30:15;;;;;;;0.82;0.75;;;23.90;43.30;;;;;;4893261;29;45611;-61
2022/11/25 11:32:43;;;;;;;0.60;0.50;;;23.90;42.90;;;;;;4894564;28;46085;-63
2022/11/25 11:35:19;;;;;;;0.60;0.45;;;23.90;43.30;;;;;;4877753;29;45753;-61
2022/11/25 11:37:45;;;;;;;0.60;0.60;;;23.90;43.10;;;;;;4860751;29;44946;-62
2022/11/25 11:40:34;;;;;;;0.80;0.57;;;23.90;43.20;;;;;;4877474;28;45830;-65
2022/11/25 11:43:19;;;;;;;1.13;0.77;;;24.00;43.60;;;;;;4859898;29;46013;-63
2022/11/25 11:46:08;;;;;;;0.47;0.47;;;23.90;43.20;;;;;;4880008;29;45192;-63
2022/11/25 11:48:38;;;;;;;0.65;0.50;;;23.90;42.90;;;;;;4876657;29;45167;-63
2022/11/25 11:51:29;;;;;;;0.70;0.50;;;24.00;43.20;;;;;;4872643;29;45712;-64
2022/11/25 11:54:02;;;;;;;1.05;0.65;;;24.00;43.10;;;;;;4890106;28;46233;-63
2022/11/25 11:56:32;;;;;;;0.43;0.43;;;24.10;43.10;;;;;;4895711;29;45759;-62
2022/11/25 11:59:19;;;;;;;0.40;0.40;;;24.10;43.10;;;;;;4877371;29;45677;-61
2022/11/25 12:01:58;;;;;;;0.93;0.70;;;24.20;42.90;;;;;;4876952;28;45098;-62
2022/11/25 12:04:37;;;;;;;0.95;0.50;;;24.20;42.70;;;;;;4873873;29;45882;-60
2022/11/25 12:07:14;;;;;;;0.43;0.30;;;24.30;42.80;;;;;;4860255;29;45287;-63
2022/11/25 12:09:53;;;;;;;2.80;0.80;;;24.30;42.80;;;;;;4879214;29;45655;-63
2022/11/25 12:12:29;;;;;;;0.30;0.30;;;24.30;42.80;;;;;;4893711;29;45460;-64
2022/11/25 12:15:00;;;;;;;0.50;0.45;;;24.30;42.90;;;;;;4862905;28;45640;-63
2022/11/25 12:17:35;;;;;;;1.17;0.60;;;24.40;42.80;;;;;;4877557;29;45342;-62
2022/11/25 12:20:31;;;;;;;0.77;0.52;;;24.40;42.80;;;;;;4876668;29;45503;-63
2022/11/25 12:23:20;;;;;;;0.60;0.60;;;24.40;42.50;;;;;;4879076;29;45301;-64
2022/11/25 12:25:45;;;;;;;0.73;0.60;;;24.40;42.40;;;;;;4877088;29;46082;-63
2022/11/25 12:28:23;;;;;;;1.02;0.80;;;24.40;42.70;;;;;;4875984;29;45177;-63
2022/11/25 12:31:12;;;;;;;0.50;0.50;;;24.40;42.60;;;;;;4875410;29;45742;-64
2022/11/25 12:33:56;;;;;;;0.47;0.40;;;24.40;42.40;;;;;;4875943;29;45825;-64
2022/11/25 12:36:31;;;;;;;0.88;0.60;;;24.40;42.50;;;;;;4891576;29;45329;-62
2022/11/25 12:39:17;;;;;;;0.90;0.60;;;24.40;42.60;;;;;;4877287;29;46307;-62
2022/11/25 12:41:54;;;;;;;1.27;0.80;;;24.40;42.40;;;;;;4891343;28;45524;-63
2022/11/25 12:44:21;;;;;;;0.50;0.50;;;24.50;42.80;;;;;;4858834;29;44800;-63
2022/11/25 12:46:51;;;;;;;0.50;0.50;;;24.40;42.80;;;;;;4876245;29;45348;-62
2022/11/25 12:49:18;;;;;;;0.60;0.60;;;24.50;42.80;;;;;;4877470;29;44824;-63
2022/11/25 12:51:59;;;;;;;0.50;0.43;;;24.50;42.70;;;;;;4892201;29;46264;-62
2022/11/25 12:54:39;;;;;;;0.68;0.50;;;24.50;42.70;;;;;;4893224;29;45296;-67
2022/11/25 12:57:42;;;;;;;1.13;0.60;;;24.50;42.60;;;;;;4892808;29;45112;-63
2022/11/25 13:00:23;;;;;;;2.28;0.35;;;24.50;42.50;;;;;;4893520;29;46108;-64
2022/11/25 13:03:28;;;;;;;0.82;0.55;;;24.50;42.70;;;;;;4861842;29;44735;-62
2022/11/25 13:06:22;;;;;;;0.50;0.50;;;24.50;42.50;;;;;;4895997;29;45470;-62
2022/11/25 13:09:07;;;;;;;0.70;0.60;;;24.60;42.60;;;;;;4883228;29;46234;-61
2022/11/25 13:11:39;;;;;;;0.40;0.40;;;24.60;42.50;;;;;;4878669;29;44819;-60
2022/11/25 13:14:19;;;;;;;0.57;0.50;;;24.60;42.70;;;;;;4896806;29;45428;-63
2022/11/25 13:16:45;;;;;;;0.52;0.45;;;24.60;42.60;;;;;;4879343;29;45695;-63
2022/11/25 13:19:11;;;;;;;0.70;0.45;;;24.70;42.70;;;;;;4878597;29;45901;-62
2022/11/25 13:22:01;;;;;;;0.52;0.50;;;24.70;42.70;;;;;;4864036;28;44925;-64
2022/11/25 13:24:47;;;;;;;0.70;0.50;;;24.70;42.30;;;;;;4896586;29;46122;-61
2022/11/25 13:27:41;;;;;;;1.38;0.75;;;24.70;42.30;;;;;;4878360;29;46195;-62
2022/11/25 13:30:31;;;;;;;0.60;0.60;;;24.70;42.20;;;;;;4897227;29;45272;-61
2022/11/25 13:33:17;;;;;;;0.50;0.50;;;24.70;42.30;;;;;;4896087;29;45323;-63
2022/11/25 13:35:43;;;;;;;0.40;0.40;;;24.70;42.60;;;;;;4894225;29;45170;-62
2022/11/25 13:38:30;;;;;;;0.70;0.60;;;24.80;42.60;;;;;;4897223;28;46276;-62
2022/11/25 13:41:12;;;;;;;0.63;0.60;;;24.80;42.30;;;;;;4895699;29;45998;-67
2022/11/25 13:43:50;;;;;;;0.90;0.50;;;24.80;42.60;;;;;;4878637;29;44814;-62
2022/11/25 13:46:38;;;;;;;0.65;0.50;;;24.80;42.40;;;;;;4878033;29;45646;-61
2022/11/25 13:49:25;;;;;;;0.50;0.45;;;24.80;42.30;;;;;;4896172;29;45447;-63
2022/11/25 13:51:53;;;;;;;0.70;0.60;;;24.80;42.60;;;;;;4880618;29;46845;-63
2022/11/25 13:54:22;;;;;;;0.60;0.50;;;24.80;42.50;;;;;;4878820;29;45754;-61
2022/11/25 13:57:13;;;;;;;0.60;0.52;;;24.80;42.60;;;;;;4877764;29;45463;-58
2022/11/25 13:59:48;;;;;;;0.68;0.47;;;24.80;42.40;;;;;;4896543;29;45782;-63
2022/11/25 14:02:28;;;;;;;0.50;0.50;;;24.80;42.50;;;;;;4894886;29;46741;-62
2022/11/25 14:05:03;;;;;;;0.50;0.50;;;24.80;42.40;;;;;;4895361;28;46126;-62
2022/11/25 14:07:46;;;;;;;0.73;0.40;;;24.80;42.50;;;;;;4894164;28;45147;-63
2022/11/25 14:10:18;;;;;;;0.63;0.40;;;24.80;42.40;;;;;;4878810;28;45456;-63
2022/11/25 14:13:06;;;;;;;0.65;0.52;;;24.80;42.60;;;;;;4879206;28;45361;-64
2022/11/25 14:15:46;;;;;;;0.57;0.57;;;24.80;42.60;;;;;;4874229;29;45763;-61
2022/11/25 14:18:12;;;;;;;1.33;0.60;;;24.90;42.40;;;;;;4894480;28;45806;-62
2022/11/25 14:21:01;;;;;;;0.60;0.55;;;24.90;42.60;;;;;;4896800;29;44855;-62
2022/11/25 14:23:35;;;;;;;0.82;0.60;;;24.90;42.60;;;;;;4895882;29;46293;-62
2022/11/25 14:26:07;;;;;;;1.00;0.60;;;25.00;42.60;;;;;;4892993;29;45775;-67
2022/11/25 14:29:02;;;;;;;0.50;0.40;;;25.00;42.30;;;;;;4871964;29;45418;-62
2022/11/25 14:31:46;;;;;;;0.60;0.60;;;25.10;42.10;;;;;;4876463;28;44747;-63
2022/11/25 14:34:15;;;;;;;0.52;0.50;;;25.10;42.10;;;;;;4861501;28;46229;-64
2022/11/25 14:36:49;;;;;;;0.60;0.60;;;25.20;42.30;;;;;;4875128;29;45780;-63
2022/11/25 14:39:20;;;;;;;0.45;0.40;;;25.20;42.20;;;;;;4870937;28;44787;-65
2022/11/25 14:42:18;;;;;;;0.43;0.43;;;25.20;42.20;;;;;;4878463;29;45072;-66
2022/11/25 14:44:50;;;;;;;0.52;0.52;;;25.20;41.80;;;;;;4827636;29;46954;-63
2022/11/25 14:47:26;;;;;;;0.50;0.50;;;25.20;42.20;;;;;;4889034;28;45361;-65
2022/11/25 14:49:53;;;;;;;0.50;0.50;;;25.20;42.00;;;;;;4895599;29;45778;-63
2022/11/25 14:52:27;;;;;;;0.55;0.50;;;25.30;42.30;;;;;;4893356;29;45342;-61
2022/11/25 14:54:53;;;;;;;0.50;0.40;;;25.30;42.20;;;;;;4894289;28;46570;-64
2022/11/25 14:57:24;;;;;;;0.57;0.43;;;25.30;42.20;;;;;;4875993;29;46414;-61
2022/11/25 14:59:50;;;;;;;0.70;0.55;;;25.20;42.10;;;;;;4875742;29;45336;-62
2022/11/25 15:02:37;;;;;;;0.65;0.57;;;25.10;42.30;;;;;;4875500;29;45338;-66
2022/11/25 15:05:09;;;;;;;0.70;0.52;;;25.00;42.10;;;;;;4890637;28;46253;-61
2022/11/25 15:07:35;;;;;;;0.90;0.50;;;24.80;42.40;;;;;;4894155;29;44698;-61
2022/11/25 15:10:01;;;;;;;0.63;0.50;;;24.80;42.70;;;;;;4876759;29;46171;-63
2022/11/25 15:12:31;;;;;;;0.40;0.40;;;24.70;42.90;;;;;;4878001;29;46352;-63
2022/11/25 15:14:57;;;;;;;0.70;0.50;;;24.60;42.90;;;;;;4862350;29;45820;-69
2022/11/25 15:17:27;;;;;;;0.55;0.55;;;24.50;43.10;;;;;;4893139;29;45576;-59
2022/11/25 15:19:53;;;;;;;;;;;24.50;43.10;;;;;;4876306;29;45879;-62
2022/11/25 15:22:18;;;;;;;;;;;24.40;43.10;;;;;;4874736;29;46403;-59
2022/11/25 15:24:45;;;;;;;;;;;24.20;43.30;;;;;;4876582;29;45647;-60
2022/11/25 15:27:14;;;;;;;;;;;24.10;43.50;;;;;;4891085;28;45287;-61
2022/11/25 15:29:40;;;;;;;0.75;0.60;;;24.10;43.60;;;;;;4894690;29;44775;-62
2022/11/25 15:32:09;;;;;;;0.50;0.50;;;24.10;43.70;;;;;;4877637;29;45295;-62
2022/11/25 15:34:34;;;;;;;0.88;0.52;;;24.10;43.70;;;;;;4877624;29;45981;-59
2022/11/25 15:37:01;;;;;;;0.70;0.57;;;24.00;43.80;;;;;;4875117;29;44962;-61
2022/11/25 15:39:28;;;;;;;0.55;0.50;;;23.90;43.90;;;;;;4874091;28;45362;-60
2022/11/25 15:41:55;;;;;;;0.50;0.47;;;23.90;43.90;;;;;;4861233;29;45863;-60
2022/11/25 15:44:26;;;;;;;0.98;0.57;;;23.80;44.00;;;;;;4861745;29;45986;-63
2022/11/25 15:47:19;;;;;;;0.77;0.63;;;23.80;44.00;;;;;;4876654;29;45059;-62
2022/11/25 15:50:00;;;;;;;0.70;0.60;;;23.70;44.10;;;;;;4893490;29;45562;-56
2022/11/25 15:52:26;;;;;;;0.90;0.70;;;23.60;44.20;;;;;;4859527;29;45785;-62
2022/11/25 15:54:59;;;;;;;1.20;0.80;;;23.50;44.30;;;;;;4872159;29;48809;-59
2022/11/25 15:57:35;;;;;;;1.02;0.65;;;23.50;44.40;;;;;;4876677;29;45368;-60
2022/11/25 16:00:12;;;;;;;1.25;0.70;;;23.40;44.50;;;;;;4873178;28;45386;-59
2022/11/25 16:02:41;;;;;;;0.63;0.63;;;23.30;44.60;;;;;;4876657;28;45871;-62
2022/11/25 16:05:13;;;;;;;0.63;0.60;;;23.30;44.80;;;;;;4890907;28;46015;-60
2022/11/25 16:07:50;;;;;;;1.02;0.70;;;23.20;44.90;;;;;;4893734;29;45478;-59
2022/11/25 16:10:30;;;;;;;1.10;0.60;;;23.10;45.00;;;;;;4894368;28;45526;-62
2022/11/25 16:13:21;;;;;;;0.80;0.60;;;23.10;45.10;;;;;;4894750;29;45606;-58
2022/11/25 16:15:52;;;;;;;0.95;0.73;;;23.00;45.10;;;;;;4890955;29;44995;-63
2022/11/25 16:18:18;;;;;;;0.88;0.70;;;22.90;45.20;;;;;;4893474;28;46311;-55
2022/11/25 16:20:54;;;;;;;0.75;0.50;;;22.90;45.30;;;;;;4860620;29;45361;-59
2022/11/25 16:23:23;;;;;;;0.82;0.52;;;22.80;45.40;;;;;;4877377;29;45663;-61
2022/11/25 16:26:15;;;;;;;0.70;0.65;;;22.70;45.40;;;;;;4875047;29;45958;-62
2022/11/25 16:28:48;;;;;;;0.50;0.45;;;22.60;45.50;;;;;;4879870;29;45426;-61
2022/11/25 16:31:17;;;;;;;0.85;0.80;;;22.50;45.60;;;;;;4861217;29;44807;-60
2022/11/25 16:33:42;;;;;;;0.70;0.60;;;22.50;45.80;;;;;;4893563;29;45536;-60
2022/11/25 16:36:08;;;;;;;0.63;0.63;;;22.40;45.70;;;;;;4892544;29;46221;-62
2022/11/25 16:38:34;;;;;;;1.38;0.80;;;22.40;46.40;;;;;;4874865;29;46249;-57
2022/11/25 16:40:59;;;;;;;0.60;0.55;;;22.30;45.90;;;;;;4897085;28;45654;-60
2022/11/25 16:43:26;;;;;;;0.82;0.52;;;22.30;45.90;;;;;;4894382;29;44763;-60
2022/11/25 16:45:52;;;;;;;0.70;0.60;;;22.20;45.90;;;;;;4895607;28;46192;-60
2022/11/25 16:48:20;;;;;;;0.80;0.68;;;22.20;46.10;;;;;;4879484;29;45489;-60
2022/11/25 16:50:45;;;;;;;1.30;0.77;;;22.20;46.10;;;;;;4895910;29;46179;-62
2022/11/25 16:53:11;;;;;;;1.13;0.80;;;22.10;46.10;;;;;;4897521;29;45643;-61
2022/11/25 16:55:37;;;;;;;2.60;0.60;;;22.10;46.20;;;;;;4895171;28;45829;-66
2022/11/25 16:58:13;;;;;;;0.65;0.63;;;22.00;46.30;;;;;;4894950;28;45893;-62
2022/11/25 17:00:38;;;;;;;0.77;0.60;;;22.00;46.40;;;;;;4878546;29;45900;-62
2022/11/25 17:03:07;;;;;;;0.98;0.77;;;21.90;46.30;;;;;;4879362;29;45886;-61
2022/11/25 17:05:33;;;;;;;0.60;0.60;;;21.90;46.40;;;;;;4878386;29;46136;-60
2022/11/25 17:07:59;;;;;;;0.95;0.60;;;21.90;46.40;;;;;;4897220;28;45667;-57
2022/11/25 17:10:25;;;;;;;0.90;0.70;;;21.80;46.50;;;;;;4895226;28;45635;-61
2022/11/25 17:12:50;;;;;;;0.90;0.80;;;21.70;46.50;;;;;;4879377;29;45529;-63
2022/11/25 17:15:21;;;;;;;1.20;0.70;;;21.70;46.60;;;;;;4895960;28;46320;-58
2022/11/25 17:17:46;;;;;;;1.00;0.70;;;21.70;46.70;;;;;;4878312;29;46419;-60
2022/11/25 17:20:16;;;;;;;0.95;0.60;;;21.60;46.80;;;;;;4877918;28;45191;-62
2022/11/25 17:22:41;;;;;;;0.88;0.80;;;21.60;46.90;;;;;;4897650;28;45499;-61
2022/11/25 17:25:10;;;;;;;0.90;0.70;;;21.50;46.90;;;;;;4896334;28;45936;-63
2022/11/25 17:27:35;;;;;;;1.38;0.85;;;21.40;47.00;;;;;;4894136;29;45316;-65
2022/11/25 17:30:03;;;;;;;1.15;0.82;;;21.40;47.10;;;;;;4880531;29;45486;-62
2022/11/25 17:32:28;;;;;;;0.75;0.65;;;21.30;47.00;;;;;;4880156;29;45675;-62
2022/11/25 17:34:54;;;;;;;0.70;0.70;;;21.30;47.10;;;;;;4880058;29;45626;-59
2022/11/25 17:37:24;;;;;;;0.80;0.80;;;21.30;47.10;;;;;;4896040;28;45272;-61
2022/11/25 17:39:53;;;;;;;1.00;0.70;;;21.20;47.20;;;;;;4898179;29;45222;-60